sensor_id;sensor_type;location;lat;lon;timestamp;temperature;humidity
15241;DHT22;7723;52.170;9.978;2023-07-31T00:02:08;15.60;99.90
15241;DHT22;7723;52.170;9.978;2023-07-31T00:04:36;15.60;99.90
15241;DHT22;7723;52.170;9.978;2023-07-31T00:07:03;15.60;99.90
15241;DHT22;7723;52.170;9.978;2023-07-31T00:09:33;15.60;99.90
15241;DHT22;7723;52.170;9.978;2023-07-31T00:12:00;15.60;99.90
15241;DHT22;7723;52.170;9.978;2023-07-31T00:14:27;15.70;99.90
15241;DHT22;7723;52.170;9.978;2023-07-31T00:16:54;15.70;99.90
15241;DHT22;7723;52.170;9.978;2023-07-31T00:19:21;15.70;99.90
15241;DHT22;7723;52.170;9.978;2023-07-31T00:21:48;15.70;99.90
15241;DHT22;7723;52.170;9.978;2023-07-31T00:24:15;15.70;99.90
15241;DHT22;7723;52.170;9.978;2023-07-31T00:26:44;15.70;99.90
15241;DHT22;7723;52.170;9.978;2023-07-31T00:29:11;15.70;99.90
15241;DHT22;7723;52.170;9.978;2023-07-31T00:31:38;15.70;99.90
15241;DHT22;7723;52.170;9.978;2023-07-31T00:34:07;15.70;99.90
15241;DHT22;7723;52.170;9.978;2023-07-31T00:36:34;15.80;99.90
15241;DHT22;7723;52.170;9.978;2023-07-31T00:39:01;15.70;99.90
15241;DHT22;7723;52.170;9.978;2023-07-31T00:41:30;15.80;99.90
15241;DHT22;7723;52.170;9.978;2023-07-31T00:43:58;15.80;99.90
15241;DHT22;7723;52.170;9.978;2023-07-31T00:46:25;15.80;99.90
15241;DHT22;7723;52.170;9.978;2023-07-31T00:48:52;15.80;99.90
15241;DHT22;7723;52.170;9.978;2023-07-31T00:51:19;15.80;99.90
15241;DHT22;7723;52.170;9.978;2023-07-31T00:53:46;15.80;99.90
15241;DHT22;7723;52.170;9.978;2023-07-31T00:56:14;15.80;99.90
15241;DHT22;7723;52.170;9.978;2023-07-31T00:58:42;15.80;99.90
15241;DHT22;7723;52.170;9.978;2023-07-31T01:01:11;15.90;99.90
15241;DHT22;7723;52.170;9.978;2023-07-31T01:03:38;15.90;99.90
15241;DHT22;7723;52.170;9.978;2023-07-31T01:06:15;15.90;99.90
15241;DHT22;7723;52.170;9.978;2023-07-31T01:08:51;15.90;99.90
15241;DHT22;7723;52.170;9.978;2023-07-31T01:11:25;15.80;99.90
15241;DHT22;7723;52.170;9.978;2023-07-31T01:13:53;15.80;99.90
15241;DHT22;7723;52.170;9.978;2023-07-31T01:16:22;15.80;99.90
15241;DHT22;7723;52.170;9.978;2023-07-31T01:18:49;15.80;99.90
15241;DHT22;7723;52.170;9.978;2023-07-31T01:21:29;15.70;99.90
15241;DHT22;7723;52.170;9.978;2023-07-31T01:24:18;15.70;99.90
15241;DHT22;7723;52.170;9.978;2023-07-31T01:26:53;15.70;99.90
15241;DHT22;7723;52.170;9.978;2023-07-31T01:29:28;15.60;99.90
15241;DHT22;7723;52.170;9.978;2023-07-31T01:31:57;15.60;99.90
15241;DHT22;7723;52.170;9.978;2023-07-31T01:34:29;15.60;99.90
15241;DHT22;7723;52.170;9.978;2023-07-31T01:36:56;15.50;99.90
15241;DHT22;7723;52.170;9.978;2023-07-31T01:39:23;15.50;99.90
15241;DHT22;7723;52.170;9.978;2023-07-31T01:41:52;15.30;99.90
15241;DHT22;7723;52.170;9.978;2023-07-31T01:44:19;15.40;99.90
15241;DHT22;7723;52.170;9.978;2023-07-31T01:46:46;15.40;99.90
15241;DHT22;7723;52.170;9.978;2023-07-31T01:49:13;15.40;99.90
15241;DHT22;7723;52.170;9.978;2023-07-31T01:51:40;15.40;99.90
15241;DHT22;7723;52.170;9.978;2023-07-31T01:54:07;15.30;99.90
15241;DHT22;7723;52.170;9.978;2023-07-31T01:56:34;15.30;99.90
15241;DHT22;7723;52.170;9.978;2023-07-31T01:59:03;15.30;99.90
15241;DHT22;7723;52.170;9.978;2023-07-31T02:01:30;15.30;99.90
15241;DHT22;7723;52.170;9.978;2023-07-31T02:03:57;15.30;99.90
15241;DHT22;7723;52.170;9.978;2023-07-31T02:06:24;15.30;99.90
15241;DHT22;7723;52.170;9.978;2023-07-31T02:08:51;15.30;99.90
15241;DHT22;7723;52.170;9.978;2023-07-31T02:11:18;15.20;99.90
15241;DHT22;7723;52.170;9.978;2023-07-31T02:13:45;15.20;99.90
15241;DHT22;7723;52.170;9.978;2023-07-31T02:16:14;15.20;99.90
15241;DHT22;7723;52.170;9.978;2023-07-31T02:18:41;15.20;99.90
15241;DHT22;7723;52.170;9.978;2023-07-31T02:21:08;15.20;99.90
15241;DHT22;7723;52.170;9.978;2023-07-31T02:23:35;15.20;99.90
15241;DHT22;7723;52.170;9.978;2023-07-31T02:26:02;15.20;99.90
15241;DHT22;7723;52.170;9.978;2023-07-31T02:28:29;15.20;99.90
15241;DHT22;7723;52.170;9.978;2023-07-31T02:30:56;15.20;99.90
15241;DHT22;7723;52.170;9.978;2023-07-31T02:33:25;15.20;99.90
15241;DHT22;7723;52.170;9.978;2023-07-31T02:35:52;15.20;99.90
15241;DHT22;7723;52.170;9.978;2023-07-31T02:38:19;15.30;99.90
15241;DHT22;7723;52.170;9.978;2023-07-31T02:40:46;15.30;99.90
15241;DHT22;7723;52.170;9.978;2023-07-31T02:43:13;15.30;99.90
15241;DHT22;7723;52.170;9.978;2023-07-31T02:45:40;15.30;99.90
15241;DHT22;7723;52.170;9.978;2023-07-31T02:48:08;16.30;99.90
15241;DHT22;7723;52.170;9.978;2023-07-31T02:50:36;15.30;99.90
15241;DHT22;7723;52.170;9.978;2023-07-31T02:53:04;15.20;99.90
15241;DHT22;7723;52.170;9.978;2023-07-31T02:55:31;15.30;99.90
15241;DHT22;7723;52.170;9.978;2023-07-31T02:57:58;15.30;99.90
15241;DHT22;7723;52.170;9.978;2023-07-31T03:00:25;15.30;99.90
15241;DHT22;7723;52.170;9.978;2023-07-31T03:02:52;15.30;99.90
15241;DHT22;7723;52.170;9.978;2023-07-31T03:05:19;15.30;99.90
15241;DHT22;7723;52.170;9.978;2023-07-31T03:07:48;15.40;99.90
15241;DHT22;7723;52.170;9.978;2023-07-31T03:10:15;15.40;99.90
15241;DHT22;7723;52.170;9.978;2023-07-31T03:12:42;15.40;99.90
15241;DHT22;7723;52.170;9.978;2023-07-31T03:15:10;15.40;99.90
15241;DHT22;7723;52.170;9.978;2023-07-31T03:17:37;15.40;99.90
15241;DHT22;7723;52.170;9.978;2023-07-31T03:20:04;15.40;99.90
15241;DHT22;7723;52.170;9.978;2023-07-31T03:22:32;15.40;99.90
15241;DHT22;7723;52.170;9.978;2023-07-31T03:25:02;15.40;99.90
15241;DHT22;7723;52.170;9.978;2023-07-31T03:27:29;15.40;99.90
15241;DHT22;7723;52.170;9.978;2023-07-31T03:29:56;15.40;99.90
15241;DHT22;7723;52.170;9.978;2023-07-31T03:32:23;15.40;99.90
15241;DHT22;7723;52.170;9.978;2023-07-31T03:34:50;15.40;99.90
15241;DHT22;7723;52.170;9.978;2023-07-31T03:37:17;15.40;99.90
15241;DHT22;7723;52.170;9.978;2023-07-31T03:39:44;15.30;99.90
15241;DHT22;7723;52.170;9.978;2023-07-31T03:42:13;15.30;99.90
15241;DHT22;7723;52.170;9.978;2023-07-31T03:44:40;15.30;99.90
15241;DHT22;7723;52.170;9.978;2023-07-31T03:47:07;15.30;99.90
15241;DHT22;7723;52.170;9.978;2023-07-31T03:49:34;15.30;99.90
15241;DHT22;7723;52.170;9.978;2023-07-31T03:52:01;15.30;99.90
15241;DHT22;7723;52.170;9.978;2023-07-31T03:54:28;15.20;99.90
15241;DHT22;7723;52.170;9.978;2023-07-31T03:56:55;15.20;99.90
15241;DHT22;7723;52.170;9.978;2023-07-31T03:59:24;15.10;99.90
15241;DHT22;7723;52.170;9.978;2023-07-31T04:01:51;15.10;99.90
15241;DHT22;7723;52.170;9.978;2023-07-31T04:04:18;14.90;99.90
15241;DHT22;7723;52.170;9.978;2023-07-31T04:06:45;14.90;99.90
15241;DHT22;7723;52.170;9.978;2023-07-31T04:09:12;14.90;99.90
15241;DHT22;7723;52.170;9.978;2023-07-31T04:11:39;14.90;99.90
15241;DHT22;7723;52.170;9.978;2023-07-31T04:14:06;14.80;99.90
15241;DHT22;7723;52.170;9.978;2023-07-31T04:16:35;14.70;99.90
15241;DHT22;7723;52.170;9.978;2023-07-31T04:19:03;14.70;99.90
15241;DHT22;7723;52.170;9.978;2023-07-31T04:21:30;14.80;99.90
15241;DHT22;7723;52.170;9.978;2023-07-31T04:23:57;14.80;99.90
15241;DHT22;7723;52.170;9.978;2023-07-31T04:26:24;14.80;99.90
15241;DHT22;7723;52.170;9.978;2023-07-31T04:28:51;14.80;99.90
15241;DHT22;7723;52.170;9.978;2023-07-31T04:31:18;14.80;99.90
15241;DHT22;7723;52.170;9.978;2023-07-31T04:33:47;14.80;99.90
15241;DHT22;7723;52.170;9.978;2023-07-31T04:36:14;14.80;99.90
15241;DHT22;7723;52.170;9.978;2023-07-31T04:38:41;14.90;99.90
15241;DHT22;7723;52.170;9.978;2023-07-31T04:41:08;14.90;99.90
15241;DHT22;7723;52.170;9.978;2023-07-31T04:43:35;14.90;99.90
15241;DHT22;7723;52.170;9.978;2023-07-31T04:46:04;14.90;99.90
15241;DHT22;7723;52.170;9.978;2023-07-31T04:48:31;14.90;99.90
15241;DHT22;7723;52.170;9.978;2023-07-31T04:51:00;15.00;99.90
15241;DHT22;7723;52.170;9.978;2023-07-31T04:53:27;15.00;99.90
15241;DHT22;7723;52.170;9.978;2023-07-31T04:55:54;15.00;99.90
15241;DHT22;7723;52.170;9.978;2023-07-31T04:58:21;15.00;99.90
15241;DHT22;7723;52.170;9.978;2023-07-31T05:00:48;15.00;99.90
15241;DHT22;7723;52.170;9.978;2023-07-31T05:03:15;15.00;99.90
15241;DHT22;7723;52.170;9.978;2023-07-31T05:05:42;15.00;99.90
15241;DHT22;7723;52.170;9.978;2023-07-31T05:08:11;15.10;99.90
15241;DHT22;7723;52.170;9.978;2023-07-31T05:10:38;15.10;99.90
15241;DHT22;7723;52.170;9.978;2023-07-31T05:13:05;15.20;99.90
15241;DHT22;7723;52.170;9.978;2023-07-31T05:15:32;15.30;99.90
15241;DHT22;7723;52.170;9.978;2023-07-31T05:17:59;15.30;99.90
15241;DHT22;7723;52.170;9.978;2023-07-31T05:20:26;15.40;99.90
15241;DHT22;7723;52.170;9.978;2023-07-31T05:22:53;15.40;99.90
15241;DHT22;7723;52.170;9.978;2023-07-31T05:25:22;15.50;99.90
15241;DHT22;7723;52.170;9.978;2023-07-31T05:27:49;15.50;99.90
15241;DHT22;7723;52.170;9.978;2023-07-31T05:30:16;15.50;99.90
15241;DHT22;7723;52.170;9.978;2023-07-31T05:32:43;15.60;99.90
15241;DHT22;7723;52.170;9.978;2023-07-31T05:35:10;15.60;99.90
15241;DHT22;7723;52.170;9.978;2023-07-31T05:37:37;15.60;99.90
15241;DHT22;7723;52.170;9.978;2023-07-31T05:40:06;15.60;99.90
15241;DHT22;7723;52.170;9.978;2023-07-31T05:42:34;15.70;99.90
15241;DHT22;7723;52.170;9.978;2023-07-31T05:45:05;15.70;99.90
15241;DHT22;7723;52.170;9.978;2023-07-31T05:47:32;15.70;99.90
15241;DHT22;7723;52.170;9.978;2023-07-31T05:49:59;15.70;99.90
15241;DHT22;7723;52.170;9.978;2023-07-31T05:52:27;15.70;99.90
15241;DHT22;7723;52.170;9.978;2023-07-31T05:54:54;15.80;99.90
15241;DHT22;7723;52.170;9.978;2023-07-31T05:57:21;15.80;99.90
15241;DHT22;7723;52.170;9.978;2023-07-31T05:59:50;15.80;99.90
15241;DHT22;7723;52.170;9.978;2023-07-31T06:02:19;15.80;99.90
15241;DHT22;7723;52.170;9.978;2023-07-31T06:04:46;15.90;99.90
15241;DHT22;7723;52.170;9.978;2023-07-31T06:07:13;15.90;99.90
15241;DHT22;7723;52.170;9.978;2023-07-31T06:09:40;15.90;99.90
15241;DHT22;7723;52.170;9.978;2023-07-31T06:12:08;15.90;99.90
15241;DHT22;7723;52.170;9.978;2023-07-31T06:14:35;15.90;99.90
15241;DHT22;7723;52.170;9.978;2023-07-31T06:17:04;15.90;99.90
15241;DHT22;7723;52.170;9.978;2023-07-31T06:19:31;15.90;99.90
15241;DHT22;7723;52.170;9.978;2023-07-31T06:21:58;15.90;99.90
15241;DHT22;7723;52.170;9.978;2023-07-31T06:24:25;15.90;99.90
15241;DHT22;7723;52.170;9.978;2023-07-31T06:26:52;16.00;99.90
15241;DHT22;7723;52.170;9.978;2023-07-31T06:29:19;16.00;99.90
15241;DHT22;7723;52.170;9.978;2023-07-31T06:31:46;15.90;99.90
15241;DHT22;7723;52.170;9.978;2023-07-31T06:34:15;15.90;99.90
15241;DHT22;7723;52.170;9.978;2023-07-31T06:36:42;16.00;99.90
15241;DHT22;7723;52.170;9.978;2023-07-31T06:39:09;16.00;99.90
15241;DHT22;7723;52.170;9.978;2023-07-31T06:41:36;16.10;99.90
15241;DHT22;7723;52.170;9.978;2023-07-31T06:44:03;16.10;99.90
15241;DHT22;7723;52.170;9.978;2023-07-31T06:46:30;16.00;99.90
15241;DHT22;7723;52.170;9.978;2023-07-31T06:48:57;16.00;99.90
15241;DHT22;7723;52.170;9.978;2023-07-31T06:51:26;16.00;99.90
15241;DHT22;7723;52.170;9.978;2023-07-31T06:53:53;16.00;99.90
15241;DHT22;7723;52.170;9.978;2023-07-31T06:56:21;16.00;99.90
15241;DHT22;7723;52.170;9.978;2023-07-31T06:58:48;16.00;99.90
15241;DHT22;7723;52.170;9.978;2023-07-31T07:01:15;16.00;99.90
15241;DHT22;7723;52.170;9.978;2023-07-31T07:03:42;16.00;99.90
15241;DHT22;7723;52.170;9.978;2023-07-31T07:06:09;16.00;99.90
15241;DHT22;7723;52.170;9.978;2023-07-31T07:08:38;16.00;99.90
15241;DHT22;7723;52.170;9.978;2023-07-31T07:11:05;16.00;99.90
15241;DHT22;7723;52.170;9.978;2023-07-31T07:13:32;16.00;99.90
15241;DHT22;7723;52.170;9.978;2023-07-31T07:15:59;16.00;99.90
15241;DHT22;7723;52.170;9.978;2023-07-31T07:18:26;16.00;99.90
15241;DHT22;7723;52.170;9.978;2023-07-31T07:20:54;16.10;99.90
15241;DHT22;7723;52.170;9.978;2023-07-31T07:23:23;16.10;99.90
15241;DHT22;7723;52.170;9.978;2023-07-31T07:25:51;16.10;99.90
15241;DHT22;7723;52.170;9.978;2023-07-31T07:28:18;16.10;99.90
15241;DHT22;7723;52.170;9.978;2023-07-31T07:30:50;16.20;99.90
15241;DHT22;7723;52.170;9.978;2023-07-31T07:33:17;16.20;99.90
15241;DHT22;7723;52.170;9.978;2023-07-31T07:35:44;16.30;99.90
15241;DHT22;7723;52.170;9.978;2023-07-31T07:38:13;16.30;99.90
15241;DHT22;7723;52.170;9.978;2023-07-31T07:40:40;16.40;99.90
15241;DHT22;7723;52.170;9.978;2023-07-31T07:43:08;16.50;99.90
15241;DHT22;7723;52.170;9.978;2023-07-31T07:45:35;16.50;99.90
15241;DHT22;7723;52.170;9.978;2023-07-31T07:48:03;16.50;99.90
15241;DHT22;7723;52.170;9.978;2023-07-31T07:50:30;16.50;99.90
15241;DHT22;7723;52.170;9.978;2023-07-31T07:52:58;16.50;99.90
15241;DHT22;7723;52.170;9.978;2023-07-31T07:55:26;16.50;99.90
15241;DHT22;7723;52.170;9.978;2023-07-31T07:57:53;16.50;99.90
15241;DHT22;7723;52.170;9.978;2023-07-31T08:00:21;16.50;99.90
15241;DHT22;7723;52.170;9.978;2023-07-31T08:02:48;16.50;99.90
15241;DHT22;7723;52.170;9.978;2023-07-31T08:05:16;16.40;99.90
15241;DHT22;7723;52.170;9.978;2023-07-31T08:07:43;16.40;99.90
15241;DHT22;7723;52.170;9.978;2023-07-31T08:10:10;16.40;99.90
15241;DHT22;7723;52.170;9.978;2023-07-31T08:12:37;16.30;99.90
15241;DHT22;7723;52.170;9.978;2023-07-31T08:15:06;16.30;99.90
15241;DHT22;7723;52.170;9.978;2023-07-31T08:17:34;16.30;99.90
15241;DHT22;7723;52.170;9.978;2023-07-31T08:20:02;16.20;99.90
15241;DHT22;7723;52.170;9.978;2023-07-31T08:22:29;16.30;99.90
15241;DHT22;7723;52.170;9.978;2023-07-31T08:24:56;16.30;99.90
15241;DHT22;7723;52.170;9.978;2023-07-31T08:27:23;16.30;99.90
15241;DHT22;7723;52.170;9.978;2023-07-31T08:29:52;16.30;99.90
15241;DHT22;7723;52.170;9.978;2023-07-31T08:32:19;16.40;99.90
15241;DHT22;7723;52.170;9.978;2023-07-31T08:34:47;16.50;99.90
15241;DHT22;7723;52.170;9.978;2023-07-31T08:37:14;16.60;99.90
15241;DHT22;7723;52.170;9.978;2023-07-31T08:39:42;16.60;99.90
15241;DHT22;7723;52.170;9.978;2023-07-31T08:42:09;16.80;99.90
15241;DHT22;7723;52.170;9.978;2023-07-31T08:44:36;16.80;99.90
15241;DHT22;7723;52.170;9.978;2023-07-31T08:47:04;16.90;99.90
15241;DHT22;7723;52.170;9.978;2023-07-31T08:49:34;16.80;99.90
15241;DHT22;7723;52.170;9.978;2023-07-31T08:52:03;16.80;99.90
15241;DHT22;7723;52.170;9.978;2023-07-31T08:54:30;16.70;99.90
15241;DHT22;7723;52.170;9.978;2023-07-31T08:56:59;16.80;99.90
15241;DHT22;7723;52.170;9.978;2023-07-31T08:59:29;16.70;99.90
15241;DHT22;7723;52.170;9.978;2023-07-31T09:02:01;16.80;99.90
15241;DHT22;7723;52.170;9.978;2023-07-31T09:04:30;16.70;99.90
15241;DHT22;7723;52.170;9.978;2023-07-31T09:07:00;16.80;99.90
15241;DHT22;7723;52.170;9.978;2023-07-31T09:09:30;16.70;99.90
15241;DHT22;7723;52.170;9.978;2023-07-31T09:11:58;16.70;99.90
15241;DHT22;7723;52.170;9.978;2023-07-31T09:14:26;16.70;99.90
15241;DHT22;7723;52.170;9.978;2023-07-31T09:16:54;16.70;99.90
15241;DHT22;7723;52.170;9.978;2023-07-31T09:19:29;16.90;99.90
15241;DHT22;7723;52.170;9.978;2023-07-31T09:21:56;16.80;99.90
15241;DHT22;7723;52.170;9.978;2023-07-31T09:24:27;16.80;99.90
15241;DHT22;7723;52.170;9.978;2023-07-31T09:26:58;16.80;99.90
15241;DHT22;7723;52.170;9.978;2023-07-31T09:29:25;16.80;99.90
15241;DHT22;7723;52.170;9.978;2023-07-31T09:31:53;16.90;99.90
15241;DHT22;7723;52.170;9.978;2023-07-31T09:34:28;16.80;99.90
15241;DHT22;7723;52.170;9.978;2023-07-31T09:37:01;17.00;99.90
15241;DHT22;7723;52.170;9.978;2023-07-31T09:39:29;17.00;99.90
15241;DHT22;7723;52.170;9.978;2023-07-31T09:41:58;17.00;99.90
15241;DHT22;7723;52.170;9.978;2023-07-31T09:44:37;16.90;99.90
15241;DHT22;7723;52.170;9.978;2023-07-31T09:47:06;16.80;99.90
15241;DHT22;7723;52.170;9.978;2023-07-31T09:49:33;16.90;99.90
15241;DHT22;7723;52.170;9.978;2023-07-31T09:52:00;16.90;99.90
15241;DHT22;7723;52.170;9.978;2023-07-31T09:54:27;17.00;99.90
15241;DHT22;7723;52.170;9.978;2023-07-31T09:56:54;17.10;99.90
15241;DHT22;7723;52.170;9.978;2023-07-31T09:59:25;17.10;99.90
15241;DHT22;7723;52.170;9.978;2023-07-31T10:01:53;17.10;99.90
15241;DHT22;7723;52.170;9.978;2023-07-31T10:04:24;17.10;99.90
15241;DHT22;7723;52.170;9.978;2023-07-31T10:06:54;17.20;99.90
15241;DHT22;7723;52.170;9.978;2023-07-31T10:09:24;17.20;99.90
15241;DHT22;7723;52.170;9.978;2023-07-31T10:11:56;17.30;99.90
15241;DHT22;7723;52.170;9.978;2023-07-31T10:14:28;17.40;99.90
15241;DHT22;7723;52.170;9.978;2023-07-31T10:16:57;17.60;99.90
15241;DHT22;7723;52.170;9.978;2023-07-31T10:19:26;17.80;99.90
15241;DHT22;7723;52.170;9.978;2023-07-31T10:21:54;18.00;99.90
15241;DHT22;7723;52.170;9.978;2023-07-31T10:24:22;18.00;99.90
15241;DHT22;7723;52.170;9.978;2023-07-31T10:26:52;18.00;99.90
15241;DHT22;7723;52.170;9.978;2023-07-31T10:29:20;17.90;99.90
15241;DHT22;7723;52.170;9.978;2023-07-31T10:31:52;17.80;99.90
15241;DHT22;7723;52.170;9.978;2023-07-31T10:34:19;17.70;99.90
15241;DHT22;7723;52.170;9.978;2023-07-31T10:36:46;17.70;99.90
15241;DHT22;7723;52.170;9.978;2023-07-31T10:39:35;17.70;99.90
15241;DHT22;7723;52.170;9.978;2023-07-31T10:42:11;17.70;99.90
15241;DHT22;7723;52.170;9.978;2023-07-31T10:44:43;17.80;99.90
15241;DHT22;7723;52.170;9.978;2023-07-31T10:47:14;17.80;99.90
15241;DHT22;7723;52.170;9.978;2023-07-31T10:49:45;17.90;99.90
15241;DHT22;7723;52.170;9.978;2023-07-31T10:52:13;18.10;99.90
15241;DHT22;7723;52.170;9.978;2023-07-31T10:54:40;18.20;99.90
15241;DHT22;7723;52.170;9.978;2023-07-31T10:57:19;18.30;99.90
15241;DHT22;7723;52.170;9.978;2023-07-31T10:59:47;18.40;99.90
15241;DHT22;7723;52.170;9.978;2023-07-31T11:02:25;18.60;99.90
15241;DHT22;7723;52.170;9.978;2023-07-31T11:05:08;18.70;99.90
15241;DHT22;7723;52.170;9.978;2023-07-31T11:07:48;18.90;99.90
15241;DHT22;7723;52.170;9.978;2023-07-31T11:10:17;19.00;99.90
15241;DHT22;7723;52.170;9.978;2023-07-31T11:12:45;19.00;99.90
15241;DHT22;7723;52.170;9.978;2023-07-31T11:15:13;19.10;99.90
15241;DHT22;7723;52.170;9.978;2023-07-31T11:17:41;19.30;99.90
15241;DHT22;7723;52.170;9.978;2023-07-31T11:20:09;19.20;99.90
15241;DHT22;7723;52.170;9.978;2023-07-31T11:22:36;19.10;99.90
15241;DHT22;7723;52.170;9.978;2023-07-31T11:25:04;19.40;99.90
15241;DHT22;7723;52.170;9.978;2023-07-31T11:27:31;19.10;99.90
15241;DHT22;7723;52.170;9.978;2023-07-31T11:30:06;19.70;99.90
15241;DHT22;7723;52.170;9.978;2023-07-31T11:32:36;19.00;99.90
15241;DHT22;7723;52.170;9.978;2023-07-31T11:35:05;18.90;99.90
15241;DHT22;7723;52.170;9.978;2023-07-31T11:37:40;18.90;99.90
15241;DHT22;7723;52.170;9.978;2023-07-31T11:40:08;18.90;99.90
15241;DHT22;7723;52.170;9.978;2023-07-31T11:42:36;18.70;99.90
15241;DHT22;7723;52.170;9.978;2023-07-31T11:45:04;18.80;99.90
15241;DHT22;7723;52.170;9.978;2023-07-31T11:47:32;18.80;99.90
15241;DHT22;7723;52.170;9.978;2023-07-31T11:50:01;19.50;99.90
15241;DHT22;7723;52.170;9.978;2023-07-31T11:52:34;19.10;99.90
15241;DHT22;7723;52.170;9.978;2023-07-31T11:55:04;19.20;99.90
15241;DHT22;7723;52.170;9.978;2023-07-31T11:57:33;19.10;99.90
15241;DHT22;7723;52.170;9.978;2023-07-31T12:00:00;19.10;99.90
15241;DHT22;7723;52.170;9.978;2023-07-31T12:02:28;19.20;99.90
15241;DHT22;7723;52.170;9.978;2023-07-31T12:04:55;19.10;99.90
15241;DHT22;7723;52.170;9.978;2023-07-31T12:07:23;19.10;99.90
15241;DHT22;7723;52.170;9.978;2023-07-31T12:09:53;19.30;99.90
15241;DHT22;7723;52.170;9.978;2023-07-31T12:12:20;19.30;99.90
15241;DHT22;7723;52.170;9.978;2023-07-31T12:14:48;19.30;99.90
15241;DHT22;7723;52.170;9.978;2023-07-31T12:17:17;19.40;99.90
15241;DHT22;7723;52.170;9.978;2023-07-31T12:19:45;19.30;99.90
15241;DHT22;7723;52.170;9.978;2023-07-31T12:22:13;19.40;99.90
15241;DHT22;7723;52.170;9.978;2023-07-31T12:24:41;19.50;99.90
15241;DHT22;7723;52.170;9.978;2023-07-31T12:27:14;19.40;99.90
15241;DHT22;7723;52.170;9.978;2023-07-31T12:29:42;19.30;99.90
15241;DHT22;7723;52.170;9.978;2023-07-31T12:32:20;19.10;99.90
15241;DHT22;7723;52.170;9.978;2023-07-31T12:34:48;19.10;99.90
15241;DHT22;7723;52.170;9.978;2023-07-31T12:37:15;19.20;99.90
15241;DHT22;7723;52.170;9.978;2023-07-31T12:39:42;19.20;99.90
15241;DHT22;7723;52.170;9.978;2023-07-31T12:42:09;19.10;99.90
15241;DHT22;7723;52.170;9.978;2023-07-31T12:44:38;19.10;99.90
15241;DHT22;7723;52.170;9.978;2023-07-31T12:47:05;18.90;99.90
15241;DHT22;7723;52.170;9.978;2023-07-31T12:49:32;18.90;99.90
15241;DHT22;7723;52.170;9.978;2023-07-31T12:51:59;18.80;99.90
15241;DHT22;7723;52.170;9.978;2023-07-31T12:54:26;18.80;99.90
15241;DHT22;7723;52.170;9.978;2023-07-31T12:56:53;18.80;99.90
15241;DHT22;7723;52.170;9.978;2023-07-31T12:59:20;18.70;99.90
15241;DHT22;7723;52.170;9.978;2023-07-31T13:01:49;18.70;99.90
15241;DHT22;7723;52.170;9.978;2023-07-31T13:04:16;18.70;99.90
15241;DHT22;7723;52.170;9.978;2023-07-31T13:06:43;19.00;99.90
15241;DHT22;7723;52.170;9.978;2023-07-31T13:09:11;19.00;99.90
15241;DHT22;7723;52.170;9.978;2023-07-31T13:11:38;18.90;99.90
15241;DHT22;7723;52.170;9.978;2023-07-31T13:14:05;19.00;99.90
15241;DHT22;7723;52.170;9.978;2023-07-31T13:16:32;19.10;99.90
15241;DHT22;7723;52.170;9.978;2023-07-31T13:19:01;19.20;99.90
15241;DHT22;7723;52.170;9.978;2023-07-31T13:21:28;19.10;99.90
15241;DHT22;7723;52.170;9.978;2023-07-31T13:23:55;19.10;99.90
15241;DHT22;7723;52.170;9.978;2023-07-31T13:26:25;19.10;99.90
15241;DHT22;7723;52.170;9.978;2023-07-31T13:28:52;19.00;99.90
15241;DHT22;7723;52.170;9.978;2023-07-31T13:31:19;18.90;99.90
15241;DHT22;7723;52.170;9.978;2023-07-31T13:33:46;18.90;99.90
15241;DHT22;7723;52.170;9.978;2023-07-31T13:36:14;18.80;99.90
15241;DHT22;7723;52.170;9.978;2023-07-31T13:38:41;19.60;99.90
15241;DHT22;7723;52.170;9.978;2023-07-31T13:41:09;18.80;99.90
15241;DHT22;7723;52.170;9.978;2023-07-31T13:43:36;18.80;99.90
15241;DHT22;7723;52.170;9.978;2023-07-31T13:46:03;18.90;99.90
15241;DHT22;7723;52.170;9.978;2023-07-31T13:48:33;19.10;99.90
15241;DHT22;7723;52.170;9.978;2023-07-31T13:51:00;19.30;99.90
15241;DHT22;7723;52.170;9.978;2023-07-31T13:53:28;19.30;99.90
15241;DHT22;7723;52.170;9.978;2023-07-31T13:55:55;19.40;99.90
15241;DHT22;7723;52.170;9.978;2023-07-31T13:58:23;19.30;99.90
15241;DHT22;7723;52.170;9.978;2023-07-31T14:00:50;19.40;99.90
15241;DHT22;7723;52.170;9.978;2023-07-31T14:03:17;19.40;99.90
15241;DHT22;7723;52.170;9.978;2023-07-31T14:05:44;19.30;99.90
15241;DHT22;7723;52.170;9.978;2023-07-31T14:08:11;19.40;99.90
15241;DHT22;7723;52.170;9.978;2023-07-31T14:10:39;19.40;99.90
15241;DHT22;7723;52.170;9.978;2023-07-31T14:13:07;19.20;99.90
15241;DHT22;7723;52.170;9.978;2023-07-31T14:15:34;19.30;99.90
15241;DHT22;7723;52.170;9.978;2023-07-31T14:18:01;19.40;99.90
15241;DHT22;7723;52.170;9.978;2023-07-31T14:20:30;19.40;99.90
15241;DHT22;7723;52.170;9.978;2023-07-31T14:22:57;19.50;99.90
15241;DHT22;7723;52.170;9.978;2023-07-31T14:25:24;19.60;99.90
15241;DHT22;7723;52.170;9.978;2023-07-31T14:27:53;19.60;99.90
15241;DHT22;7723;52.170;9.978;2023-07-31T14:30:20;19.80;99.90
15241;DHT22;7723;52.170;9.978;2023-07-31T14:32:47;19.70;99.90
15241;DHT22;7723;52.170;9.978;2023-07-31T14:35:14;19.60;99.90
15241;DHT22;7723;52.170;9.978;2023-07-31T14:37:43;19.60;99.90
15241;DHT22;7723;52.170;9.978;2023-07-31T14:40:12;19.60;99.90
15241;DHT22;7723;52.170;9.978;2023-07-31T14:42:39;19.80;99.90
15241;DHT22;7723;52.170;9.978;2023-07-31T14:45:09;19.90;99.90
15241;DHT22;7723;52.170;9.978;2023-07-31T14:47:36;20.00;99.90
15241;DHT22;7723;52.170;9.978;2023-07-31T14:50:04;20.00;99.90
15241;DHT22;7723;52.170;9.978;2023-07-31T14:52:32;20.10;99.90
15241;DHT22;7723;52.170;9.978;2023-07-31T14:54:59;20.10;99.90
15241;DHT22;7723;52.170;9.978;2023-07-31T14:57:26;20.20;99.90
15241;DHT22;7723;52.170;9.978;2023-07-31T14:59:53;20.20;99.90
15241;DHT22;7723;52.170;9.978;2023-07-31T15:02:22;20.30;99.90
15241;DHT22;7723;52.170;9.978;2023-07-31T15:04:49;20.20;99.90
15241;DHT22;7723;52.170;9.978;2023-07-31T15:07:16;20.20;99.90
15241;DHT22;7723;52.170;9.978;2023-07-31T15:09:43;20.20;99.90
15241;DHT22;7723;52.170;9.978;2023-07-31T15:12:10;20.20;99.90
15241;DHT22;7723;52.170;9.978;2023-07-31T15:14:37;20.10;99.90
15241;DHT22;7723;52.170;9.978;2023-07-31T15:17:05;20.10;99.90
15241;DHT22;7723;52.170;9.978;2023-07-31T15:19:33;20.10;99.90
15241;DHT22;7723;52.170;9.978;2023-07-31T15:22:02;20.00;99.90
15241;DHT22;7723;52.170;9.978;2023-07-31T15:24:29;20.10;99.90
15241;DHT22;7723;52.170;9.978;2023-07-31T15:26:56;20.00;99.90
15241;DHT22;7723;52.170;9.978;2023-07-31T15:29:24;19.90;99.90
15241;DHT22;7723;52.170;9.978;2023-07-31T15:31:51;19.80;99.90
15241;DHT22;7723;52.170;9.978;2023-07-31T15:34:18;20.00;99.90
15241;DHT22;7723;52.170;9.978;2023-07-31T15:36:47;20.10;99.90
15241;DHT22;7723;52.170;9.978;2023-07-31T15:39:15;20.00;99.90
15241;DHT22;7723;52.170;9.978;2023-07-31T15:41:42;20.10;99.90
15241;DHT22;7723;52.170;9.978;2023-07-31T15:44:09;20.10;99.90
15241;DHT22;7723;52.170;9.978;2023-07-31T15:46:36;20.10;99.90
15241;DHT22;7723;52.170;9.978;2023-07-31T15:49:03;20.00;99.90
15241;DHT22;7723;52.170;9.978;2023-07-31T15:51:30;20.20;99.90